Time;durP1;ratioP1;P1;durP2;ratioP2;P2;SDS_P1;SDS_P2;PMS_P1;PMS_P2;Temp;Humidity;BMP_temperature;BMP_pressure;BME280_temperature;BME280_humidity;BME280_pressure;Samples;Min_cycle;Max_cycle;Signal;HPM_P1;HPM_P2
2022/05/17 00:02:08;;;;;;;2.22;1.13;;;;;;;;;;4936093;29;20042;-87
2022/05/17 00:04:34;;;;;;;3.53;1.00;;;;;;;;;;4934694;29;20024;-87
2022/05/17 00:07:01;;;;;;;1.85;1.10;;;;;;;;;;4936299;29;20082;-88
2022/05/17 00:09:27;;;;;;;5.30;1.10;;;;;;;;;;4947617;29;20485;-89
2022/05/17 00:11:52;;;;;;;1.85;1.10;;;;;;;;;;4938092;29;20039;-88
2022/05/17 00:14:18;;;;;;;2.33;1.10;;;;;;;;;;4936410;29;20514;-88
2022/05/17 00:16:45;;;;;;;2.67;1.15;;;;;;;;;;4938506;29;20405;-86
2022/05/17 00:19:12;;;;;;;3.50;1.02;;;;;;;;;;4936874;29;20103;-87
2022/05/17 00:21:38;;;;;;;4.03;1.10;;;;;;;;;;4938220;29;20451;-87
2022/05/17 00:24:06;;;;;;;2.22;1.20;;;;;;;;;;4921782;29;20094;-87
2022/05/17 00:26:34;;;;;;;1.88;1.00;;;;;;;;;;4941637;29;20035;-86
2022/05/17 00:29:00;;;;;;;1.73;1.10;;;;;;;;;;4952054;29;20035;-85
2022/05/17 00:31:26;;;;;;;1.55;0.95;;;;;;;;;;4937322;29;20452;-86
2022/05/17 00:33:53;;;;;;;3.90;1.30;;;;;;;;;;4952035;29;20575;-87
2022/05/17 00:36:19;;;;;;;2.65;1.23;;;;;;;;;;4937033;29;20043;-85
2022/05/17 00:38:44;;;;;;;2.50;1.10;;;;;;;;;;4951305;28;20035;-87
2022/05/17 00:41:10;;;;;;;3.28;0.90;;;;;;;;;;4937031;29;20531;-87
2022/05/17 00:46:58;;;;;;;2.13;1.20;;;;;;;;;;4921602;29;20071;-87
2022/05/17 00:49:36;;;;;;;2.88;1.10;;;;;;;;;;4937499;29;20031;-86
2022/05/17 00:52:06;;;;;;;2.85;1.10;;;;;;;;;;4936744;29;20040;-87
2022/05/17 00:54:34;;;;;;;2.47;1.15;;;;;;;;;;4936446;29;20031;-86
2022/05/17 00:57:13;;;;;;;2.03;1.15;;;;;;;;;;4935992;29;20504;-87
2022/05/17 00:59:39;;;;;;;1.95;1.08;;;;;;;;;;4934945;29;20044;-86
2022/05/17 01:02:09;;;;;;;4.32;1.15;;;;;;;;;;4935675;29;20046;-87
2022/05/17 01:04:35;;;;;;;3.42;1.13;;;;;;;;;;4935237;29;20562;-86
2022/05/17 01:07:05;;;;;;;1.65;1.27;;;;;;;;;;4918547;29;20070;-86
2022/05/17 01:09:30;;;;;;;2.83;1.25;;;;;;;;;;4934331;29;20039;-85
2022/05/17 01:11:56;;;;;;;4.05;1.20;;;;;;;;;;4918051;29;20040;-87
2022/05/17 01:17:08;;;;;;;1.48;1.00;;;;;;;;;;4939055;29;20506;-88
2022/05/17 01:19:37;;;;;;;3.13;1.20;;;;;;;;;;4943187;29;20066;-88
2022/05/17 01:22:03;;;;;;;3.42;1.30;;;;;;;;;;4943352;29;20511;-86
2022/05/17 01:24:28;;;;;;;3.28;1.40;;;;;;;;;;4936308;29;20118;-87
2022/05/17 01:27:08;;;;;;;2.85;1.17;;;;;;;;;;4950758;29;20038;-87
2022/05/17 01:29:39;;;;;;;2.70;1.38;;;;;;;;;;4936288;29;20057;-86
2022/05/17 01:32:05;;;;;;;4.88;1.20;;;;;;;;;;4934517;29;20028;-86
2022/05/17 01:34:33;;;;;;;4.75;1.23;;;;;;;;;;4934333;29;20123;-87
2022/05/17 01:36:59;;;;;;;3.63;1.42;;;;;;;;;;4936274;29;20028;-86
2022/05/17 01:39:24;;;;;;;3.90;1.33;;;;;;;;;;4950720;29;20103;-87
2022/05/17 01:41:50;;;;;;;1.50;1.10;;;;;;;;;;4934431;29;20551;-87
2022/05/17 01:44:15;;;;;;;3.05;1.20;;;;;;;;;;4934280;29;20040;-87
2022/05/17 01:46:41;;;;;;;2.63;1.38;;;;;;;;;;4935746;29;20063;-86
2022/05/17 01:49:06;;;;;;;4.22;1.20;;;;;;;;;;4935923;29;20048;-88
2022/05/17 01:51:32;;;;;;;3.42;1.17;;;;;;;;;;4952982;28;20027;-87
2022/05/17 01:53:57;;;;;;;3.38;1.50;;;;;;;;;;4953839;29;20578;-85
2022/05/17 01:56:22;;;;;;;2.20;1.30;;;;;;;;;;4939594;29;20040;-85
2022/05/17 01:58:48;;;;;;;3.78;1.40;;;;;;;;;;4954188;29;20044;-87
2022/05/17 02:01:13;;;;;;;3.85;1.20;;;;;;;;;;4939550;29;20040;-87
2022/05/17 02:03:39;;;;;;;3.38;1.40;;;;;;;;;;4940388;29;20066;-88
2022/05/17 02:06:05;;;;;;;3.05;1.50;;;;;;;;;;4954760;29;20485;-88
2022/05/17 02:08:31;;;;;;;3.33;1.45;;;;;;;;;;4940763;29;20039;-88
2022/05/17 02:10:57;;;;;;;5.18;1.45;;;;;;;;;;4940503;29;20471;-87
2022/05/17 02:13:22;;;;;;;4.40;1.90;;;;;;;;;;4940732;29;20127;-87
2022/05/17 02:15:48;;;;;;;4.30;1.25;;;;;;;;;;4940750;29;20043;-88
2022/05/17 02:18:13;;;;;;;3.67;1.48;;;;;;;;;;4958175;29;20061;-87
2022/05/17 02:20:39;;;;;;;6.50;1.55;;;;;;;;;;4938062;29;20401;-87
2022/05/17 02:23:07;;;;;;;5.07;1.40;;;;;;;;;;4936775;29;20569;-86
2022/05/17 02:25:34;;;;;;;3.00;1.50;;;;;;;;;;4951993;29;20083;-87
2022/05/17 02:28:07;;;;;;;1.93;1.50;;;;;;;;;;4948790;29;20082;-87
2022/05/17 02:30:32;;;;;;;6.35;1.60;;;;;;;;;;4938115;29;20036;-87
2022/05/17 02:32:58;;;;;;;5.38;1.42;;;;;;;;;;4939143;29;20033;-85
2022/05/17 02:35:25;;;;;;;5.88;1.40;;;;;;;;;;4937441;29;20035;-87
2022/05/17 02:37:51;;;;;;;2.42;1.30;;;;;;;;;;4953648;29;20086;-88
2022/05/17 02:40:16;;;;;;;3.47;1.50;;;;;;;;;;4953416;29;20036;-87
2022/05/17 02:42:42;;;;;;;6.35;1.50;;;;;;;;;;4938789;29;20036;-88
2022/05/17 02:45:07;;;;;;;2.95;1.30;;;;;;;;;;4937532;29;20035;-87
2022/05/17 02:47:34;;;;;;;2.17;1.20;;;;;;;;;;4953275;29;20493;-87
2022/05/17 02:50:00;;;;;;;5.32;1.35;;;;;;;;;;4939254;29;20496;-87
2022/05/17 02:52:26;;;;;;;4.90;1.70;;;;;;;;;;4938745;29;20086;-88
2022/05/17 02:54:51;;;;;;;3.30;1.67;;;;;;;;;;4938459;29;20040;-88
2022/05/17 02:57:17;;;;;;;4.25;1.60;;;;;;;;;;4939042;29;20036;-87
2022/05/17 02:59:42;;;;;;;2.63;1.33;;;;;;;;;;4939127;29;20035;-88
2022/05/17 03:02:08;;;;;;;2.35;1.50;;;;;;;;;;4939229;29;20031;-87
2022/05/17 03:04:34;;;;;;;2.38;1.38;;;;;;;;;;4954194;29;20107;-87
2022/05/17 03:06:59;;;;;;;3.13;1.50;;;;;;;;;;4939225;29;20486;-88
2022/05/17 03:09:24;;;;;;;7.38;1.73;;;;;;;;;;4939863;29;20501;-87
2022/05/17 03:11:50;;;;;;;6.88;1.42;;;;;;;;;;4938939;29;20039;-88
2022/05/17 03:14:17;;;;;;;3.35;1.45;;;;;;;;;;4943521;29;20041;-87
2022/05/17 03:16:43;;;;;;;3.58;1.50;;;;;;;;;;4937838;29;20480;-86
2022/05/17 03:19:09;;;;;;;5.57;1.48;;;;;;;;;;4936217;29;20038;-87
2022/05/17 03:21:34;;;;;;;3.35;1.30;;;;;;;;;;4936350;29;20040;-87
2022/05/17 03:24:00;;;;;;;5.43;1.63;;;;;;;;;;4936819;29;20515;-87
2022/05/17 03:26:26;;;;;;;3.05;1.40;;;;;;;;;;4936107;29;20040;-87
2022/05/17 03:28:51;;;;;;;6.32;1.50;;;;;;;;;;4937067;29;20044;-87
2022/05/17 03:31:17;;;;;;;8.52;1.63;;;;;;;;;;4936768;29;20035;-86
2022/05/17 03:33:44;;;;;;;2.63;1.50;;;;;;;;;;4936485;29;20032;-87
2022/05/17 03:36:10;;;;;;;3.08;1.70;;;;;;;;;;4953651;29;20075;-88
2022/05/17 03:38:36;;;;;;;3.22;1.40;;;;;;;;;;4946017;29;20040;-86
2022/05/17 03:41:03;;;;;;;4.20;1.60;;;;;;;;;;4937715;29;20114;-87
2022/05/17 03:43:29;;;;;;;6.70;1.50;;;;;;;;;;4920523;29;20485;-88
2022/05/17 03:45:56;;;;;;;2.80;1.55;;;;;;;;;;4936159;29;20032;-87
2022/05/17 03:48:24;;;;;;;4.53;1.60;;;;;;;;;;4937990;29;20516;-87
2022/05/17 03:50:49;;;;;;;7.03;1.73;;;;;;;;;;4936450;29;20046;-87
2022/05/17 03:53:15;;;;;;;3.25;1.42;;;;;;;;;;4936240;29;20040;-87
2022/05/17 03:55:41;;;;;;;2.10;1.50;;;;;;;;;;4937273;29;20044;-87
2022/05/17 03:58:07;;;;;;;3.92;1.75;;;;;;;;;;4936883;29;20035;-87
2022/05/17 04:00:33;;;;;;;3.42;1.60;;;;;;;;;;4952853;29;20283;-86
2022/05/17 04:03:00;;;;;;;5.93;1.63;;;;;;;;;;4938543;29;20086;-88
2022/05/17 04:05:26;;;;;;;3.35;1.60;;;;;;;;;;4938400;29;20171;-88
2022/05/17 04:07:51;;;;;;;4.90;2.00;;;;;;;;;;4938803;29;20031;-87
2022/05/17 04:10:18;;;;;;;7.43;1.90;;;;;;;;;;4925543;29;20090;-85
2022/05/17 04:12:44;;;;;;;7.53;1.88;;;;;;;;;;4952002;29;20039;-87
2022/05/17 04:15:14;;;;;;;2.88;1.77;;;;;;;;;;4936261;29;20481;-87
2022/05/17 04:17:40;;;;;;;4.72;1.80;;;;;;;;;;4951584;29;20032;-87
2022/05/17 04:20:08;;;;;;;6.57;1.80;;;;;;;;;;4936892;29;20027;-87
2022/05/17 04:22:33;;;;;;;5.20;1.98;;;;;;;;;;4936596;29;20043;-87
2022/05/17 04:24:59;;;;;;;3.17;1.67;;;;;;;;;;4951167;29;20408;-87
2022/05/17 04:27:26;;;;;;;6.53;1.88;;;;;;;;;;4935986;29;20047;-87
2022/05/17 04:29:51;;;;;;;3.30;1.88;;;;;;;;;;4936543;29;20040;-86
2022/05/17 04:32:18;;;;;;;2.85;1.80;;;;;;;;;;4951696;29;20032;-85
2022/05/17 04:34:43;;;;;;;4.65;1.98;;;;;;;;;;4946896;29;20039;-87
2022/05/17 04:37:09;;;;;;;4.07;1.80;;;;;;;;;;4951648;29;20054;-86
2022/05/17 04:39:35;;;;;;;2.92;1.90;;;;;;;;;;4936329;29;20114;-87
2022/05/17 04:42:02;;;;;;;4.05;1.95;;;;;;;;;;4950855;29;20036;-86
2022/05/17 04:44:28;;;;;;;3.47;2.00;;;;;;;;;;4935944;29;20506;-86
2022/05/17 04:46:54;;;;;;;4.50;2.00;;;;;;;;;;4946323;29;20130;-87
2022/05/17 04:49:19;;;;;;;5.20;2.00;;;;;;;;;;4919536;29;20036;-87
2022/05/17 04:51:46;;;;;;;4.05;2.20;;;;;;;;;;4936433;29;20448;-87
2022/05/17 04:54:12;;;;;;;8.18;2.25;;;;;;;;;;4935786;29;20051;-86
2022/05/17 04:56:37;;;;;;;3.97;1.90;;;;;;;;;;4936968;29;20035;-86
2022/05/17 04:59:03;;;;;;;3.47;1.83;;;;;;;;;;4936340;29;20090;-85
2022/05/17 05:01:31;;;;;;;7.75;1.88;;;;;;;;;;4979093;23;20077;-85
2022/05/17 05:03:57;;;;;;;8.73;2.28;;;;;;;;;;4997016;28;20030;-83
2022/05/17 05:06:23;;;;;;;7.15;2.00;;;;;;;;;;4998998;28;20023;-84
2022/05/17 05:08:48;;;;;;;6.60;2.20;;;;;;;;;;4998444;28;20407;-84
2022/05/17 05:11:14;;;;;;;3.28;1.92;;;;;;;;;;4996943;28;20457;-84
2022/05/17 05:13:39;;;;;;;2.88;2.00;;;;;;;;;;4996333;28;20070;-84
2022/05/17 05:16:14;;;;;;;4.60;1.88;;;;;;;;;;4992758;28;20101;-87
2022/05/17 05:18:40;;;;;;;7.50;2.42;;;;;;;;;;4978242;28;20031;-84
2022/05/17 05:21:09;;;;;;;5.05;2.00;;;;;;;;;;4996659;28;20425;-83
2022/05/17 05:23:35;;;;;;;4.70;2.00;;;;;;;;;;4996565;28;20120;-84
2022/05/17 05:26:02;;;;;;;5.55;1.90;;;;;;;;;;4997673;28;20030;-84
2022/05/17 05:28:30;;;;;;;3.60;2.10;;;;;;;;;;5000218;28;20034;-83
2022/05/17 05:30:56;;;;;;;7.07;2.28;;;;;;;;;;5000947;28;20038;-83
2022/05/17 05:33:22;;;;;;;3.78;2.10;;;;;;;;;;5000192;28;20045;-83
2022/05/17 05:35:48;;;;;;;3.25;2.08;;;;;;;;;;5001587;28;20066;-83
2022/05/17 05:38:14;;;;;;;6.45;2.15;;;;;;;;;;5000548;28;20030;-83
2022/05/17 05:40:41;;;;;;;4.53;2.10;;;;;;;;;;5001410;28;20046;-82
2022/05/17 05:43:07;;;;;;;7.93;2.42;;;;;;;;;;5002292;28;20406;-82
2022/05/17 05:45:33;;;;;;;4.47;2.25;;;;;;;;;;5001985;28;20031;-83
2022/05/17 05:47:59;;;;;;;3.05;2.13;;;;;;;;;;5002239;28;20041;-82
2022/05/17 05:50:25;;;;;;;6.07;2.20;;;;;;;;;;5001185;28;20069;-83
2022/05/17 05:52:50;;;;;;;2.78;1.88;;;;;;;;;;5001027;28;20038;-83
2022/05/17 05:55:21;;;;;;;5.30;2.10;;;;;;;;;;5000363;28;20038;-83
2022/05/17 05:57:48;;;;;;;3.97;2.05;;;;;;;;;;5001509;28;20080;-84
2022/05/17 06:00:15;;;;;;;6.93;2.13;;;;;;;;;;5002556;28;20030;-83
2022/05/17 06:02:41;;;;;;;6.75;2.00;;;;;;;;;;5002424;28;20040;-84
2022/05/17 06:05:07;;;;;;;3.92;2.25;;;;;;;;;;5002565;28;20053;-84
2022/05/17 06:07:34;;;;;;;5.65;2.05;;;;;;;;;;4984872;28;20526;-84
2022/05/17 06:09:59;;;;;;;3.80;2.00;;;;;;;;;;5000883;28;20038;-84
2022/05/17 06:12:24;;;;;;;4.00;2.10;;;;;;;;;;5001606;28;20029;-84
2022/05/17 06:14:51;;;;;;;3.55;2.00;;;;;;;;;;5001685;28;20117;-84
2022/05/17 06:17:17;;;;;;;4.43;2.40;;;;;;;;;;5000665;28;20052;-84
2022/05/17 06:19:42;;;;;;;6.85;2.42;;;;;;;;;;5001437;28;20061;-84
2022/05/17 06:22:09;;;;;;;3.90;2.25;;;;;;;;;;5000750;28;20069;-84
2022/05/17 06:24:34;;;;;;;3.72;2.13;;;;;;;;;;5001086;28;20049;-85
2022/05/17 06:27:01;;;;;;;4.60;2.30;;;;;;;;;;5001310;28;20081;-83
2022/05/17 06:29:27;;;;;;;7.35;2.58;;;;;;;;;;4999936;28;20073;-84
2022/05/17 06:31:52;;;;;;;4.07;2.50;;;;;;;;;;5000142;28;20038;-84
2022/05/17 06:34:17;;;;;;;5.13;2.50;;;;;;;;;;5000481;28;20113;-84
2022/05/17 06:36:43;;;;;;;3.15;2.00;;;;;;;;;;5000191;28;20411;-83
2022/05/17 06:39:08;;;;;;;4.78;2.10;;;;;;;;;;5001650;28;20125;-84
2022/05/17 06:41:35;;;;;;;4.25;1.90;;;;;;;;;;5000951;28;20085;-85
2022/05/17 06:44:01;;;;;;;4.35;2.13;;;;;;;;;;5001530;28;20398;-84
2022/05/17 06:46:26;;;;;;;3.63;1.95;;;;;;;;;;5001413;28;20030;-84
2022/05/17 06:48:52;;;;;;;3.65;2.10;;;;;;;;;;5000256;28;20060;-84
2022/05/17 06:51:17;;;;;;;7.50;2.47;;;;;;;;;;5001019;28;20613;-84
2022/05/17 06:53:43;;;;;;;3.38;2.00;;;;;;;;;;5000756;28;20066;-84
2022/05/17 06:56:09;;;;;;;10.05;2.60;;;;;;;;;;5000621;28;20414;-84
2022/05/17 06:58:34;;;;;;;5.97;2.58;;;;;;;;;;4982450;28;20446;-84
2022/05/17 07:01:00;;;;;;;4.05;1.90;;;;;;;;;;4999953;28;20042;-84
2022/05/17 07:03:26;;;;;;;6.53;2.40;;;;;;;;;;4983385;28;20034;-84
2022/05/17 07:05:51;;;;;;;4.50;2.05;;;;;;;;;;5000726;28;20049;-84
2022/05/17 07:08:18;;;;;;;5.18;2.67;;;;;;;;;;4998229;28;20037;-84
2022/05/17 07:13:27;;;;;;;5.28;2.75;;;;;;;;;;4999032;28;20030;-84
2022/05/17 07:15:53;;;;;;;4.75;2.40;;;;;;;;;;4998636;28;20093;-84
2022/05/17 07:18:23;;;;;;;9.07;2.30;;;;;;;;;;4999270;28;20041;-84
2022/05/17 07:20:49;;;;;;;3.95;2.20;;;;;;;;;;4999551;28;20038;-84
2022/05/17 07:23:17;;;;;;;4.85;2.22;;;;;;;;;;4999323;28;20034;-84
2022/05/17 07:25:45;;;;;;;7.30;2.63;;;;;;;;;;4999032;28;20066;-84
2022/05/17 07:28:14;;;;;;;7.63;2.55;;;;;;;;;;4997742;28;20499;-85
2022/05/17 07:30:40;;;;;;;6.97;2.70;;;;;;;;;;4981016;28;20046;-84
2022/05/17 07:33:06;;;;;;;5.32;2.50;;;;;;;;;;4998336;28;20042;-84
2022/05/17 07:35:31;;;;;;;5.88;2.50;;;;;;;;;;4996551;28;20046;-85
2022/05/17 07:37:57;;;;;;;5.93;2.88;;;;;;;;;;4998608;28;20068;-84
2022/05/17 07:40:23;;;;;;;5.15;3.10;;;;;;;;;;4999035;28;20078;-87
2022/05/17 07:42:48;;;;;;;9.45;3.28;;;;;;;;;;4997041;28;20031;-87
2022/05/17 07:45:14;;;;;;;10.63;3.20;;;;;;;;;;4981730;28;20494;-86
2022/05/17 07:47:40;;;;;;;6.55;2.95;;;;;;;;;;4998925;28;20034;-85
2022/05/17 07:50:09;;;;;;;7.68;3.33;;;;;;;;;;4999422;28;20030;-88
2022/05/17 07:52:35;;;;;;;6.97;3.10;;;;;;;;;;4998272;28;20042;-86
2022/05/17 07:55:01;;;;;;;8.05;2.83;;;;;;;;;;4998758;28;20034;-86
2022/05/17 07:57:27;;;;;;;4.50;2.90;;;;;;;;;;4999072;28;20038;-85
2022/05/17 07:59:53;;;;;;;9.05;3.22;;;;;;;;;;4999214;28;20154;-86
2022/05/17 08:02:18;;;;;;;7.60;3.20;;;;;;;;;;4981601;28;20093;-85
2022/05/17 08:04:44;;;;;;;6.35;3.08;;;;;;;;;;4997805;28;20066;-81
2022/05/17 08:07:09;;;;;;;5.40;2.83;;;;;;;;;;4998530;28;20030;-86
2022/05/17 08:09:36;;;;;;;7.95;3.03;;;;;;;;;;4998335;28;20057;-86
2022/05/17 08:12:04;;;;;;;6.53;2.85;;;;;;;;;;4999673;28;20031;-85
2022/05/17 08:14:30;;;;;;;5.20;3.20;;;;;;;;;;4998678;28;20041;-86
2022/05/17 08:16:55;;;;;;;6.35;3.40;;;;;;;;;;4998179;28;20031;-86
2022/05/17 08:19:21;;;;;;;4.63;3.20;;;;;;;;;;5000107;28;20144;-85
2022/05/17 08:21:46;;;;;;;5.88;3.10;;;;;;;;;;4998511;28;20034;-86
2022/05/17 08:24:12;;;;;;;5.93;3.08;;;;;;;;;;4998893;28;20046;-86
2022/05/17 08:29:22;;;;;;;6.25;2.90;;;;;;;;;;4998425;28;20042;-86
2022/05/17 08:34:31;;;;;;;6.15;3.63;;;;;;;;;;4998313;28;20086;-86
2022/05/17 08:36:57;;;;;;;6.20;2.95;;;;;;;;;;5000150;28;20030;-86
2022/05/17 08:39:22;;;;;;;6.50;3.17;;;;;;;;;;4999330;28;20034;-85
2022/05/17 08:41:55;;;;;;;5.05;2.90;;;;;;;;;;4999307;28;20073;-86
2022/05/17 08:44:40;;;;;;;5.50;3.00;;;;;;;;;;4997393;28;20030;-86
2022/05/17 08:47:21;;;;;;;6.65;3.30;;;;;;;;;;4999480;28;20145;-86
2022/05/17 08:49:55;;;;;;;7.32;3.20;;;;;;;;;;4997633;28;20038;-85
2022/05/17 08:52:23;;;;;;;5.88;2.85;;;;;;;;;;4998650;28;20533;-87
2022/05/17 08:55:00;;;;;;;6.20;3.20;;;;;;;;;;4998713;28;20045;-86
2022/05/17 08:57:33;;;;;;;6.65;2.72;;;;;;;;;;4999884;28;20503;-87
2022/05/17 09:00:23;;;;;;;7.78;3.00;;;;;;;;;;5000692;28;20065;-87
2022/05/17 09:03:21;;;;;;;4.75;2.50;;;;;;;;;;4991278;28;20046;-86
2022/05/17 09:05:52;;;;;;;5.32;2.42;;;;;;;;;;4977726;28;20050;-86
2022/05/17 09:08:41;;;;;;;6.10;2.67;;;;;;;;;;4981446;28;20070;-86
2022/05/17 09:11:16;;;;;;;5.82;2.70;;;;;;;;;;4983075;28;20038;-87
2022/05/17 09:14:05;;;;;;;6.97;2.90;;;;;;;;;;4998764;28;20038;-87
2022/05/17 09:16:41;;;;;;;6.57;2.78;;;;;;;;;;4983758;28;20092;-86
2022/05/17 09:19:07;;;;;;;6.25;2.92;;;;;;;;;;5000813;28;20042;-86
2022/05/17 09:21:37;;;;;;;7.32;2.88;;;;;;;;;;4999410;28;20038;-86
2022/05/17 09:24:11;;;;;;;5.72;2.90;;;;;;;;;;4999214;28;20054;-86
2022/05/17 09:26:37;;;;;;;6.65;3.00;;;;;;;;;;4998636;28;20034;-86
2022/05/17 09:29:18;;;;;;;6.93;2.90;;;;;;;;;;4998537;28;20515;-86
2022/05/17 09:31:58;;;;;;;7.53;2.63;;;;;;;;;;4999844;28;20034;-86
2022/05/17 09:34:44;;;;;;;6.00;2.50;;;;;;;;;;5000495;28;20109;-86
2022/05/17 09:37:19;;;;;;;6.55;2.60;;;;;;;;;;5001328;28;20042;-86
2022/05/17 09:39:49;;;;;;;7.80;2.75;;;;;;;;;;5001869;28;20096;-86
2022/05/17 09:42:36;;;;;;;7.97;2.85;;;;;;;;;;4999909;28;20049;-86
2022/05/17 09:45:04;;;;;;;4.45;2.67;;;;;;;;;;4999490;28;20376;-86
2022/05/17 09:47:34;;;;;;;5.50;2.90;;;;;;;;;;4999995;28;20042;-86
2022/05/17 09:53:05;;;;;;;5.35;2.75;;;;;;;;;;5000712;28;20057;-87
2022/05/17 09:55:33;;;;;;;4.65;2.30;;;;;;;;;;4983767;28;20723;-86
2022/05/17 09:58:07;;;;;;;5.82;2.65;;;;;;;;;;5000478;28;20034;-86
2022/05/17 10:00:42;;;;;;;5.95;2.70;;;;;;;;;;4982543;28;20499;-86
2022/05/17 10:03:19;;;;;;;6.45;2.42;;;;;;;;;;4999795;28;20038;-86
2022/05/17 10:05:56;;;;;;;6.78;2.58;;;;;;;;;;4998468;28;20045;-87
2022/05/17 10:08:23;;;;;;;4.03;2.50;;;;;;;;;;4996876;28;20039;-86
2022/05/17 10:11:00;;;;;;;4.95;2.60;;;;;;;;;;4996599;28;20030;-86
2022/05/17 10:13:51;;;;;;;5.03;2.70;;;;;;;;;;5002884;28;20046;-85
2022/05/17 10:16:39;;;;;;;4.70;2.33;;;;;;;;;;5001324;28;20045;-85
2022/05/17 10:19:15;;;;;;;4.15;2.50;;;;;;;;;;4992166;28;20050;-86
2022/05/17 10:21:50;;;;;;;5.18;2.60;;;;;;;;;;5001984;28;20038;-85
2022/05/17 10:24:49;;;;;;;4.90;2.50;;;;;;;;;;5002890;28;20045;-86
2022/05/17 10:27:35;;;;;;;4.88;2.17;;;;;;;;;;5003198;28;20189;-85
2022/05/17 10:30:06;;;;;;;4.88;2.47;;;;;;;;;;4999926;28;20098;-85
2022/05/17 10:32:49;;;;;;;5.75;2.40;;;;;;;;;;5002269;28;20042;-87
2022/05/17 10:35:17;;;;;;;3.53;2.17;;;;;;;;;;5001576;28;20054;-86
2022/05/17 10:37:57;;;;;;;6.25;2.53;;;;;;;;;;5002619;28;20615;-86
2022/05/17 10:40:35;;;;;;;7.57;2.40;;;;;;;;;;5002421;28;20061;-86
2022/05/17 10:43:02;;;;;;;6.30;2.50;;;;;;;;;;5002164;28;20030;-85
2022/05/17 10:45:33;;;;;;;3.58;2.10;;;;;;;;;;5000940;28;20034;-86
2022/05/17 10:48:34;;;;;;;4.05;1.90;;;;;;;;;;5002511;28;20069;-85
2022/05/17 10:51:34;;;;;;;4.95;2.30;;;;;;;;;;5006367;28;20038;-87
2022/05/17 10:54:13;;;;;;;4.53;2.00;;;;;;;;;;4989615;28;20043;-87
2022/05/17 10:56:47;;;;;;;7.25;2.25;;;;;;;;;;5003585;28;20045;-86
2022/05/17 11:00:00;;;;;;;4.85;2.13;;;;;;;;;;5002815;28;20030;-86
2022/05/17 11:02:47;;;;;;;5.07;1.92;;;;;;;;;;4907758;29;20135;-86
2022/05/17 11:05:27;;;;;;;5.32;2.30;;;;;;;;;;4922737;29;20032;-86
2022/05/17 11:08:17;;;;;;;5.07;2.30;;;;;;;;;;4978912;28;20050;-88
2022/05/17 11:10:54;;;;;;;4.30;2.28;;;;;;;;;;5000581;28;20489;-84
2022/05/17 11:13:31;;;;;;;4.15;2.40;;;;;;;;;;4997990;28;20041;-82
2022/05/17 11:16:12;;;;;;;4.82;2.55;;;;;;;;;;4998544;28;20070;-82
2022/05/17 11:18:52;;;;;;;9.70;2.53;;;;;;;;;;4998445;28;20043;-83
2022/05/17 11:21:27;;;;;;;4.78;2.42;;;;;;;;;;5001683;28;20121;-84
2022/05/17 11:24:05;;;;;;;6.47;2.40;;;;;;;;;;4999530;28;20069;-83
2022/05/17 11:27:02;;;;;;;4.03;2.35;;;;;;;;;;5000293;28;20085;-84
2022/05/17 11:29:27;;;;;;;4.13;1.90;;;;;;;;;;4965872;28;20399;-83
2022/05/17 11:31:56;;;;;;;7.50;2.03;;;;;;;;;;5001736;28;20029;-84
2022/05/17 11:34:22;;;;;;;5.78;2.30;;;;;;;;;;4984569;28;20042;-84
2022/05/17 11:36:49;;;;;;;3.60;2.30;;;;;;;;;;5000326;28;20132;-84
2022/05/17 11:39:41;;;;;;;6.93;2.05;;;;;;;;;;4999462;28;20034;-83
2022/05/17 11:42:20;;;;;;;5.15;2.38;;;;;;;;;;4982811;28;20034;-85
2022/05/17 11:44:49;;;;;;;6.78;2.33;;;;;;;;;;4999785;28;20034;-83
2022/05/17 11:47:28;;;;;;;6.20;2.20;;;;;;;;;;4996977;28;20030;-83
2022/05/17 11:50:18;;;;;;;6.57;2.65;;;;;;;;;;4996976;28;20034;-83
2022/05/17 11:52:49;;;;;;;7.95;2.20;;;;;;;;;;4996348;28;20053;-83
2022/05/17 11:55:19;;;;;;;5.32;2.40;;;;;;;;;;4997035;28;20052;-84
2022/05/17 11:57:47;;;;;;;3.70;2.00;;;;;;;;;;4997915;28;20034;-83
2022/05/17 12:00:27;;;;;;;3.97;2.00;;;;;;;;;;4997286;28;20026;-84
2022/05/17 12:03:01;;;;;;;6.53;2.17;;;;;;;;;;4996444;28;20038;-84
2022/05/17 12:05:47;;;;;;;4.15;2.00;;;;;;;;;;4998123;28;20034;-83
2022/05/17 12:08:31;;;;;;;5.40;2.38;;;;;;;;;;4996549;28;20045;-82
2022/05/17 12:11:12;;;;;;;3.22;2.08;;;;;;;;;;4997321;28;20045;-83
2022/05/17 12:14:08;;;;;;;5.15;2.35;;;;;;;;;;4996682;28;20042;-83
2022/05/17 12:16:36;;;;;;;10.30;2.88;;;;;;;;;;4994922;28;20042;-83
2022/05/17 12:19:05;;;;;;;5.57;2.47;;;;;;;;;;4996714;28;20046;-83
2022/05/17 12:21:48;;;;;;;6.63;2.80;;;;;;;;;;4996290;28;20038;-83
2022/05/17 12:24:49;;;;;;;6.32;2.88;;;;;;;;;;4997252;28;20038;-83
2022/05/17 12:27:44;;;;;;;3.45;2.60;;;;;;;;;;4995998;28;20044;-83
2022/05/17 12:33:07;;;;;;;5.32;2.60;;;;;;;;;;4996301;28;20490;-83
2022/05/17 12:35:33;;;;;;;5.25;2.50;;;;;;;;;;4996211;28;20053;-84
2022/05/17 12:37:59;;;;;;;4.53;2.75;;;;;;;;;;4995427;28;20499;-86
2022/05/17 12:43:13;;;;;;;4.93;2.40;;;;;;;;;;4996056;28;20034;-83
2022/05/17 12:45:46;;;;;;;6.88;2.70;;;;;;;;;;4996391;28;20036;-84
2022/05/17 12:48:35;;;;;;;7.60;2.92;;;;;;;;;;4996071;28;20030;-84
2022/05/17 12:51:04;;;;;;;6.20;2.47;;;;;;;;;;4994197;28;20097;-84
2022/05/17 12:53:41;;;;;;;5.28;2.83;;;;;;;;;;4978534;28;20455;-84
2022/05/17 12:56:31;;;;;;;5.28;3.03;;;;;;;;;;4995688;28;20042;-84
2022/05/17 12:59:01;;;;;;;4.72;2.55;;;;;;;;;;4993441;28;20499;-84
2022/05/17 13:01:33;;;;;;;7.10;2.83;;;;;;;;;;4994659;28;20042;-84
2022/05/17 13:04:09;;;;;;;6.97;3.10;;;;;;;;;;4994777;28;20046;-83
2022/05/17 13:06:42;;;;;;;7.55;2.97;;;;;;;;;;4994346;28;20096;-86
2022/05/17 13:09:16;;;;;;;3.80;2.30;;;;;;;;;;4997232;28;20042;-83
2022/05/17 13:11:42;;;;;;;5.38;2.45;;;;;;;;;;4996724;28;20038;-84
2022/05/17 13:14:10;;;;;;;5.43;2.60;;;;;;;;;;4996024;28;20372;-84
2022/05/17 13:16:40;;;;;;;9.05;2.67;;;;;;;;;;4997296;28;20053;-83
2022/05/17 13:19:12;;;;;;;4.90;2.10;;;;;;;;;;4999593;28;20053;-83
2022/05/17 13:21:41;;;;;;;8.88;2.30;;;;;;;;;;4995411;28;20065;-84
2022/05/17 13:24:35;;;;;;;5.15;2.40;;;;;;;;;;4980375;28;20130;-83
2022/05/17 13:27:19;;;;;;;4.95;2.60;;;;;;;;;;4997718;28;20069;-84
2022/05/17 13:29:51;;;;;;;5.90;2.53;;;;;;;;;;4995353;28;20120;-85
2022/05/17 13:32:17;;;;;;;4.25;2.58;;;;;;;;;;4994519;28;20057;-84
2022/05/17 13:34:43;;;;;;;9.65;2.67;;;;;;;;;;4994502;28;20407;-84
2022/05/17 13:37:17;;;;;;;5.38;2.67;;;;;;;;;;4996212;28;20034;-83
2022/05/17 13:39:48;;;;;;;4.45;2.70;;;;;;;;;;4995780;28;20034;-84
2022/05/17 13:42:26;;;;;;;4.10;2.50;;;;;;;;;;4996474;28;20621;-85
2022/05/17 13:45:01;;;;;;;6.43;2.80;;;;;;;;;;4995636;28;20058;-83
2022/05/17 13:47:33;;;;;;;4.32;2.40;;;;;;;;;;4996806;28;20062;-83
2022/05/17 13:50:09;;;;;;;6.25;2.78;;;;;;;;;;4999373;28;20529;-84
2022/05/17 13:52:39;;;;;;;6.03;2.60;;;;;;;;;;5000443;28;20049;-83
2022/05/17 13:55:18;;;;;;;8.60;2.70;;;;;;;;;;4999437;28;20039;-83
2022/05/17 13:57:52;;;;;;;6.70;2.80;;;;;;;;;;5000485;28;20122;-83
2022/05/17 14:00:17;;;;;;;8.07;3.15;;;;;;;;;;5000110;28;20034;-83
2022/05/17 14:02:48;;;;;;;3.42;2.10;;;;;;;;;;4997965;28;20038;-83
2022/05/17 14:05:16;;;;;;;6.35;2.60;;;;;;;;;;4998474;28;20073;-82
2022/05/17 14:07:58;;;;;;;5.68;2.22;;;;;;;;;;4998624;28;20411;-83
2022/05/17 14:13:25;;;;;;;4.38;2.20;;;;;;;;;;5000190;28;20495;-82
2022/05/17 14:15:51;;;;;;;5.25;2.22;;;;;;;;;;5000434;28;20565;-82
2022/05/17 14:18:30;;;;;;;3.42;2.35;;;;;;;;;;5000924;28;20022;-83
2022/05/17 14:20:57;;;;;;;7.57;1.92;;;;;;;;;;5000115;28;20037;-82
2022/05/17 14:23:22;;;;;;;2.75;1.80;;;;;;;;;;5000925;28;20033;-82
2022/05/17 14:25:48;;;;;;;6.38;2.20;;;;;;;;;;5000256;28;20030;-84
2022/05/17 14:28:14;;;;;;;10.57;2.75;;;;;;;;;;5001443;28;20065;-83
2022/05/17 14:30:41;;;;;;;5.07;2.25;;;;;;;;;;4982925;28;20042;-83
2022/05/17 14:33:08;;;;;;;7.65;2.45;;;;;;;;;;4997230;28;20034;-83
2022/05/17 14:35:34;;;;;;;6.95;2.10;;;;;;;;;;4996507;28;20066;-83
2022/05/17 14:38:03;;;;;;;8.05;2.10;;;;;;;;;;4997754;28;20038;-83
2022/05/17 14:40:29;;;;;;;4.50;2.05;;;;;;;;;;4998259;28;20499;-85
2022/05/17 14:42:58;;;;;;;5.70;2.38;;;;;;;;;;4997688;28;20027;-84
2022/05/17 14:45:24;;;;;;;5.57;2.15;;;;;;;;;;4997794;28;20045;-83
2022/05/17 14:47:50;;;;;;;3.00;1.88;;;;;;;;;;4997692;28;20388;-86
2022/05/17 14:50:21;;;;;;;7.90;2.20;;;;;;;;;;4997901;28;20499;-83
2022/05/17 14:52:49;;;;;;;5.05;2.00;;;;;;;;;;4997623;28;20034;-83
2022/05/17 14:55:17;;;;;;;3.97;2.00;;;;;;;;;;4996925;28;20034;-83
2022/05/17 14:57:43;;;;;;;4.85;2.38;;;;;;;;;;4995711;28;20045;-83
2022/05/17 15:00:14;;;;;;;6.57;2.63;;;;;;;;;;4996813;28;20018;-83
2022/05/17 15:02:46;;;;;;;7.75;2.00;;;;;;;;;;4995960;28;20045;-83
2022/05/17 15:05:12;;;;;;;4.18;1.92;;;;;;;;;;4996304;28;20034;-84
2022/05/17 15:07:43;;;;;;;4.47;2.10;;;;;;;;;;4979091;28;20038;-83
2022/05/17 15:10:13;;;;;;;3.97;1.90;;;;;;;;;;4996563;28;20034;-83
2022/05/17 15:12:39;;;;;;;5.78;2.00;;;;;;;;;;4996042;28;20034;-83
2022/05/17 15:15:06;;;;;;;4.10;2.00;;;;;;;;;;4994744;28;20038;-83
2022/05/17 15:17:33;;;;;;;2.88;1.83;;;;;;;;;;4996332;28;20443;-83
2022/05/17 15:20:03;;;;;;;4.78;2.00;;;;;;;;;;4996503;28;20109;-83
2022/05/17 15:22:41;;;;;;;6.05;2.08;;;;;;;;;;4979103;28;20031;-82
2022/05/17 15:25:08;;;;;;;5.97;1.80;;;;;;;;;;4996934;28;20042;-85
2022/05/17 15:27:33;;;;;;;7.13;2.67;;;;;;;;;;4997025;28;20454;-84